sensor_id;sensor_type;location;lat;lon;timestamp;pressure;altitude;pressure_sealevel;temperature;humidity
70323;BME280;57735;56.264;43.898;2022-12-07T00:00:18;102594.25;;;-8.61;64.31
70323;BME280;57735;56.264;43.898;2022-12-07T00:02:49;102590.78;;;-8.63;64.16
70323;BME280;57735;56.264;43.898;2022-12-07T00:05:22;102599.47;;;-8.58;64.24
70323;BME280;57735;56.264;43.898;2022-12-07T00:07:53;102596.03;;;-8.57;64.01
70323;BME280;57735;56.264;43.898;2022-12-07T00:10:23;102600.34;;;-8.57;63.98
70323;BME280;57735;56.264;43.898;2022-12-07T00:12:54;102587.38;;;-8.60;64.27
70323;BME280;57735;56.264;43.898;2022-12-07T00:15:35;102586.59;;;-8.53;64.22
70323;BME280;57735;56.264;43.898;2022-12-07T00:18:06;102591.78;;;-8.52;63.72
70323;BME280;57735;56.264;43.898;2022-12-07T00:20:36;102584.06;;;-8.49;63.90
70323;BME280;57735;56.264;43.898;2022-12-07T00:23:10;102578.00;;;-8.52;63.50
70323;BME280;57735;56.264;43.898;2022-12-07T00:25:41;102583.19;;;-8.51;63.77
70323;BME280;57735;56.264;43.898;2022-12-07T00:28:11;102580.66;;;-8.48;63.58
70323;BME280;57735;56.264;43.898;2022-12-07T00:30:47;102588.38;;;-8.49;63.50
70323;BME280;57735;56.264;43.898;2022-12-07T00:33:18;102593.56;;;-8.48;63.85
70323;BME280;57735;56.264;43.898;2022-12-07T00:35:55;102582.25;;;-8.54;64.03
70323;BME280;57735;56.264;43.898;2022-12-07T00:38:29;102586.59;;;-8.53;64.18
70323;BME280;57735;56.264;43.898;2022-12-07T00:41:05;102580.53;;;-8.57;64.01
70323;BME280;57735;56.264;43.898;2022-12-07T00:43:36;102579.66;;;-8.59;64.08
70323;BME280;57735;56.264;43.898;2022-12-07T00:46:08;102581.38;;;-8.58;64.15
70323;BME280;57735;56.264;43.898;2022-12-07T00:48:39;102586.47;;;-8.62;64.21
70323;BME280;57735;56.264;43.898;2022-12-07T00:51:11;102586.44;;;-8.65;64.41
70323;BME280;57735;56.264;43.898;2022-12-07T00:53:42;102587.28;;;-8.66;64.34
70323;BME280;57735;56.264;43.898;2022-12-07T00:56:14;102589.81;;;-8.69;64.51
70323;BME280;57735;56.264;43.898;2022-12-07T00:58:59;102593.22;;;-8.73;64.60
70323;BME280;57735;56.264;43.898;2022-12-07T01:01:33;102586.31;;;-8.74;64.49
70323;BME280;57735;56.264;43.898;2022-12-07T01:04:05;102581.16;;;-8.74;64.70
70323;BME280;57735;56.264;43.898;2022-12-07T01:06:36;102581.16;;;-8.74;64.71
70323;BME280;57735;56.264;43.898;2022-12-07T01:09:09;102577.72;;;-8.73;64.49
70323;BME280;57735;56.264;43.898;2022-12-07T01:11:39;102581.22;;;-8.68;64.77
70323;BME280;57735;56.264;43.898;2022-12-07T01:14:10;102584.69;;;-8.66;64.81
70323;BME280;57735;56.264;43.898;2022-12-07T01:16:41;102580.31;;;-8.70;64.56
70323;BME280;57735;56.264;43.898;2022-12-07T01:19:12;102586.38;;;-8.71;64.58
70323;BME280;57735;56.264;43.898;2022-12-07T01:21:42;102581.16;;;-8.73;64.67
70323;BME280;57735;56.264;43.898;2022-12-07T01:24:13;102587.97;;;-8.78;64.60
70323;BME280;57735;56.264;43.898;2022-12-07T01:26:44;102586.13;;;-8.87;64.55
70323;BME280;57735;56.264;43.898;2022-12-07T01:29:15;102589.53;;;-8.89;64.99
70323;BME280;57735;56.264;43.898;2022-12-07T01:31:48;102581.63;;;-9.00;64.73
70323;BME280;57735;56.264;43.898;2022-12-07T01:34:22;102596.22;;;-9.02;64.95
70323;BME280;57735;56.264;43.898;2022-12-07T01:36:53;102585.88;;;-9.05;64.93
70323;BME280;57735;56.264;43.898;2022-12-07T01:39:24;102576.38;;;-9.06;65.14
70323;BME280;57735;56.264;43.898;2022-12-07T01:41:55;102584.88;;;-9.11;64.99
70323;BME280;57735;56.264;43.898;2022-12-07T01:44:29;102573.69;;;-9.12;65.25
70323;BME280;57735;56.264;43.898;2022-12-07T01:47:03;102586.56;;;-9.13;65.03
70323;BME280;57735;56.264;43.898;2022-12-07T01:49:48;102577.84;;;-9.20;65.16
70323;BME280;57735;56.264;43.898;2022-12-07T01:52:25;102577.78;;;-9.25;65.25
70323;BME280;57735;56.264;43.898;2022-12-07T01:55:02;102586.34;;;-9.27;65.58
70323;BME280;57735;56.264;43.898;2022-12-07T01:57:38;102574.22;;;-9.31;65.42
70323;BME280;57735;56.264;43.898;2022-12-07T02:00:11;102573.31;;;-9.33;65.57
70323;BME280;57735;56.264;43.898;2022-12-07T02:05:37;102575.81;;;-9.41;65.58
70323;BME280;57735;56.264;43.898;2022-12-07T02:08:09;102578.34;;;-9.42;65.74
70323;BME280;57735;56.264;43.898;2022-12-07T02:10:41;102579.09;;;-9.48;65.42
70323;BME280;57735;56.264;43.898;2022-12-07T02:13:16;102587.69;;;-9.49;65.61
70323;BME280;57735;56.264;43.898;2022-12-07T02:21:52;102584.03;;;-9.62;65.81
70323;BME280;57735;56.264;43.898;2022-12-07T02:24:54;102589.19;;;-9.62;65.78
70323;BME280;57735;56.264;43.898;2022-12-07T02:27:37;102586.66;;;-9.60;65.85
70323;BME280;57735;56.264;43.898;2022-12-07T02:30:21;102595.25;;;-9.60;65.87
70323;BME280;57735;56.264;43.898;2022-12-07T02:35:56;102586.63;;;-9.62;65.75
70323;BME280;57735;56.264;43.898;2022-12-07T02:38:51;102580.47;;;-9.68;65.47
70323;BME280;57735;56.264;43.898;2022-12-07T02:41:30;102579.66;;;-9.66;65.53
70323;BME280;57735;56.264;43.898;2022-12-07T02:44:09;102581.41;;;-9.65;65.91
70323;BME280;57735;56.264;43.898;2022-12-07T02:46:51;102583.97;;;-9.65;65.25
70323;BME280;57735;56.264;43.898;2022-12-07T02:49:25;102584.81;;;-9.66;65.64
70323;BME280;57735;56.264;43.898;2022-12-07T02:51:57;102591.66;;;-9.68;65.52
70323;BME280;57735;56.264;43.898;2022-12-07T02:54:28;102597.63;;;-9.70;65.51
70323;BME280;57735;56.264;43.898;2022-12-07T03:02:58;102588.91;;;-9.77;65.94
70323;BME280;57735;56.264;43.898;2022-12-07T03:08:48;102601.78;;;-9.78;65.36
70323;BME280;57735;56.264;43.898;2022-12-07T03:11:31;102596.53;;;-9.83;65.48
70323;BME280;57735;56.264;43.898;2022-12-07T03:14:15;102600.72;;;-9.88;65.88
70323;BME280;57735;56.264;43.898;2022-12-07T03:17:00;102605.00;;;-9.90;65.98
70323;BME280;57735;56.264;43.898;2022-12-07T03:19:34;102607.56;;;-9.92;65.86
70323;BME280;57735;56.264;43.898;2022-12-07T03:22:10;102599.75;;;-9.95;65.92
70323;BME280;57735;56.264;43.898;2022-12-07T03:24:57;102593.81;;;-9.91;66.01
70323;BME280;57735;56.264;43.898;2022-12-07T03:27:51;102592.84;;;-9.96;65.81
70323;BME280;57735;56.264;43.898;2022-12-07T03:31:02;102596.25;;;-9.98;66.40
70323;BME280;57735;56.264;43.898;2022-12-07T03:33:42;102595.31;;;-10.02;66.04
70323;BME280;57735;56.264;43.898;2022-12-07T03:36:25;102595.25;;;-10.05;66.41
70323;BME280;57735;56.264;43.898;2022-12-07T03:39:24;102590.88;;;-10.09;66.64
70323;BME280;57735;56.264;43.898;2022-12-07T03:41:58;102599.44;;;-10.11;66.60
70323;BME280;57735;56.264;43.898;2022-12-07T03:44:30;102605.41;;;-10.12;66.67
70323;BME280;57735;56.264;43.898;2022-12-07T03:49:58;102612.25;;;-10.14;66.85
70323;BME280;57735;56.264;43.898;2022-12-07T03:52:45;102602.84;;;-10.12;66.73
70323;BME280;57735;56.264;43.898;2022-12-07T03:55:35;102613.16;;;-10.12;66.63
70323;BME280;57735;56.264;43.898;2022-12-07T03:58:16;102621.78;;;-10.10;66.76
70323;BME280;57735;56.264;43.898;2022-12-07T04:00:49;102605.38;;;-10.14;66.78
70323;BME280;57735;56.264;43.898;2022-12-07T04:03:21;102617.38;;;-10.16;66.88
70323;BME280;57735;56.264;43.898;2022-12-07T04:05:52;102617.34;;;-10.17;66.93
70323;BME280;57735;56.264;43.898;2022-12-07T04:08:23;102619.91;;;-10.19;67.01
70323;BME280;57735;56.264;43.898;2022-12-07T04:11:01;102616.44;;;-10.23;67.17
70323;BME280;57735;56.264;43.898;2022-12-07T04:13:32;102614.69;;;-10.24;67.14
70323;BME280;57735;56.264;43.898;2022-12-07T04:16:22;102620.72;;;-10.23;67.42
70323;BME280;57735;56.264;43.898;2022-12-07T04:18:56;102621.56;;;-10.24;67.67
70323;BME280;57735;56.264;43.898;2022-12-07T04:21:27;102614.66;;;-10.25;67.78
70323;BME280;57735;56.264;43.898;2022-12-07T04:23:58;102614.72;;;-10.22;67.52
70323;BME280;57735;56.264;43.898;2022-12-07T04:26:35;102613.88;;;-10.19;67.78
70323;BME280;57735;56.264;43.898;2022-12-07T04:29:06;102609.56;;;-10.20;67.56
70323;BME280;57735;56.264;43.898;2022-12-07T04:31:37;102613.88;;;-10.19;67.70
70323;BME280;57735;56.264;43.898;2022-12-07T04:34:12;102612.97;;;-10.22;67.89
70323;BME280;57735;56.264;43.898;2022-12-07T04:36:43;102614.75;;;-10.19;67.69
70323;BME280;57735;56.264;43.898;2022-12-07T04:39:34;102609.63;;;-10.16;67.88
70323;BME280;57735;56.264;43.898;2022-12-07T04:42:05;102618.28;;;-10.14;67.66
70323;BME280;57735;56.264;43.898;2022-12-07T04:44:36;102615.66;;;-10.15;68.00
70323;BME280;57735;56.264;43.898;2022-12-07T04:47:07;102625.94;;;-10.17;67.87
70323;BME280;57735;56.264;43.898;2022-12-07T04:49:37;102622.50;;;-10.17;68.04
70323;BME280;57735;56.264;43.898;2022-12-07T04:52:08;102615.63;;;-10.17;67.91
70323;BME280;57735;56.264;43.898;2022-12-07T04:54:39;102621.72;;;-10.13;68.03
70323;BME280;57735;56.264;43.898;2022-12-07T04:57:10;102622.59;;;-10.13;67.93
70323;BME280;57735;56.264;43.898;2022-12-07T04:59:40;102623.47;;;-10.12;68.14
70323;BME280;57735;56.264;43.898;2022-12-07T05:02:11;102625.97;;;-10.15;68.09
70323;BME280;57735;56.264;43.898;2022-12-07T05:04:42;102634.66;;;-10.12;68.11
70323;BME280;57735;56.264;43.898;2022-12-07T05:07:16;102634.69;;;-10.10;68.00
70323;BME280;57735;56.264;43.898;2022-12-07T05:09:47;102633.00;;;-10.08;68.10
70323;BME280;57735;56.264;43.898;2022-12-07T05:12:18;102627.06;;;-10.06;68.10
70323;BME280;57735;56.264;43.898;2022-12-07T05:14:48;102633.00;;;-10.08;67.87
70323;BME280;57735;56.264;43.898;2022-12-07T05:17:19;102634.75;;;-10.07;68.15
70323;BME280;57735;56.264;43.898;2022-12-07T05:19:50;102628.75;;;-10.05;68.01
70323;BME280;57735;56.264;43.898;2022-12-07T05:22:21;102628.84;;;-10.02;68.13
70323;BME280;57735;56.264;43.898;2022-12-07T05:24:52;102633.97;;;-10.03;68.08
70323;BME280;57735;56.264;43.898;2022-12-07T05:27:26;102632.22;;;-10.04;67.88
70323;BME280;57735;56.264;43.898;2022-12-07T05:29:57;102633.09;;;-10.04;68.10
70323;BME280;57735;56.264;43.898;2022-12-07T05:32:28;102635.69;;;-10.02;68.17
70323;BME280;57735;56.264;43.898;2022-12-07T05:34:58;102629.66;;;-10.03;68.13
70323;BME280;57735;56.264;43.898;2022-12-07T05:37:29;102633.09;;;-10.05;68.04
70323;BME280;57735;56.264;43.898;2022-12-07T05:40:08;102643.41;;;-10.05;67.94
70323;BME280;57735;56.264;43.898;2022-12-07T05:42:40;102630.44;;;-10.08;68.07
70323;BME280;57735;56.264;43.898;2022-12-07T05:45:11;102636.50;;;-10.06;68.06
70323;BME280;57735;56.264;43.898;2022-12-07T05:47:41;102634.81;;;-10.03;68.22
70323;BME280;57735;56.264;43.898;2022-12-07T05:50:12;102630.53;;;-10.02;67.75
70323;BME280;57735;56.264;43.898;2022-12-07T05:52:43;102638.31;;;-10.01;67.91
70323;BME280;57735;56.264;43.898;2022-12-07T05:55:16;102628.06;;;-9.98;67.62
70323;BME280;57735;56.264;43.898;2022-12-07T05:57:47;102627.25;;;-9.95;67.76
70323;BME280;57735;56.264;43.898;2022-12-07T06:00:36;102628.97;;;-9.96;67.60
70323;BME280;57735;56.264;43.898;2022-12-07T06:03:07;102622.97;;;-9.95;67.17
70323;BME280;57735;56.264;43.898;2022-12-07T06:05:41;102623.84;;;-9.94;67.16
70323;BME280;57735;56.264;43.898;2022-12-07T06:08:12;102618.63;;;-9.97;67.15
70323;BME280;57735;56.264;43.898;2022-12-07T06:10:46;102628.06;;;-9.98;67.17
70323;BME280;57735;56.264;43.898;2022-12-07T06:13:37;102616.88;;;-9.98;66.83
70323;BME280;57735;56.264;43.898;2022-12-07T06:16:08;102624.59;;;-10.00;66.85
70323;BME280;57735;56.264;43.898;2022-12-07T06:18:39;102625.44;;;-9.99;66.85
70323;BME280;57735;56.264;43.898;2022-12-07T06:21:10;102623.81;;;-9.96;66.95
70323;BME280;57735;56.264;43.898;2022-12-07T06:23:43;102636.84;;;-9.90;67.14
70323;BME280;57735;56.264;43.898;2022-12-07T06:26:14;102642.03;;;-9.87;66.92
70323;BME280;57735;56.264;43.898;2022-12-07T06:28:44;102627.44;;;-9.86;66.62
70323;BME280;57735;56.264;43.898;2022-12-07T06:31:15;102635.13;;;-9.89;66.73
70323;BME280;57735;56.264;43.898;2022-12-07T06:33:46;102634.25;;;-9.90;66.55
70323;BME280;57735;56.264;43.898;2022-12-07T06:36:17;102636.88;;;-9.87;66.63
70323;BME280;57735;56.264;43.898;2022-12-07T06:38:47;102636.88;;;-9.87;66.48
70323;BME280;57735;56.264;43.898;2022-12-07T06:41:21;102632.72;;;-9.80;66.43
70323;BME280;57735;56.264;43.898;2022-12-07T06:43:52;102637.91;;;-9.78;65.88
70323;BME280;57735;56.264;43.898;2022-12-07T06:46:23;102632.84;;;-9.74;66.17
70323;BME280;57735;56.264;43.898;2022-12-07T06:48:54;102629.44;;;-9.73;66.14
70323;BME280;57735;56.264;43.898;2022-12-07T06:51:31;102633.75;;;-9.70;65.86
70323;BME280;57735;56.264;43.898;2022-12-07T06:54:03;102636.41;;;-9.66;65.68
70323;BME280;57735;56.264;43.898;2022-12-07T06:56:37;102634.81;;;-9.61;65.72
70323;BME280;57735;56.264;43.898;2022-12-07T06:59:08;102638.28;;;-9.59;65.20
70323;BME280;57735;56.264;43.898;2022-12-07T07:01:39;102646.91;;;-9.58;65.02
70323;BME280;57735;56.264;43.898;2022-12-07T07:04:09;102646.94;;;-9.57;64.81
70323;BME280;57735;56.264;43.898;2022-12-07T07:06:40;102647.03;;;-9.51;65.11
70323;BME280;57735;56.264;43.898;2022-12-07T07:09:12;102652.19;;;-9.51;64.61
70323;BME280;57735;56.264;43.898;2022-12-07T07:11:43;102643.59;;;-9.49;64.53
70323;BME280;57735;56.264;43.898;2022-12-07T07:14:13;102646.22;;;-9.48;64.43
70323;BME280;57735;56.264;43.898;2022-12-07T07:16:49;102657.31;;;-9.52;64.32
70323;BME280;57735;56.264;43.898;2022-12-07T07:19:20;102660.00;;;-9.47;64.25
70323;BME280;57735;56.264;43.898;2022-12-07T07:21:50;102654.09;;;-9.42;64.58
70323;BME280;57735;56.264;43.898;2022-12-07T07:24:21;102664.53;;;-9.34;64.20
70323;BME280;57735;56.264;43.898;2022-12-07T07:26:52;102667.19;;;-9.31;63.80
70323;BME280;57735;56.264;43.898;2022-12-07T07:29:23;102665.50;;;-9.29;63.34
70323;BME280;57735;56.264;43.898;2022-12-07T07:31:54;102661.22;;;-9.27;63.37
70323;BME280;57735;56.264;43.898;2022-12-07T07:34:25;102657.81;;;-9.26;63.22
70323;BME280;57735;56.264;43.898;2022-12-07T07:36:59;102666.41;;;-9.27;63.37
70323;BME280;57735;56.264;43.898;2022-12-07T07:39:29;102662.16;;;-9.24;63.19
70323;BME280;57735;56.264;43.898;2022-12-07T07:42:00;102667.34;;;-9.21;63.05
70323;BME280;57735;56.264;43.898;2022-12-07T07:44:31;102663.97;;;-9.18;63.10
70323;BME280;57735;56.264;43.898;2022-12-07T07:47:02;102669.13;;;-9.18;62.68
70323;BME280;57735;56.264;43.898;2022-12-07T07:49:35;102666.50;;;-9.20;62.38
70323;BME280;57735;56.264;43.898;2022-12-07T07:52:06;102656.13;;;-9.24;62.38
70323;BME280;57735;56.264;43.898;2022-12-07T07:54:37;102661.28;;;-9.24;62.76
70323;BME280;57735;56.264;43.898;2022-12-07T07:57:08;102667.34;;;-9.22;62.84
70323;BME280;57735;56.264;43.898;2022-12-07T07:59:39;102656.19;;;-9.20;62.57
70323;BME280;57735;56.264;43.898;2022-12-07T08:02:17;102652.72;;;-9.23;62.64
70323;BME280;57735;56.264;43.898;2022-12-07T08:04:48;102653.63;;;-9.18;62.45
70323;BME280;57735;56.264;43.898;2022-12-07T08:07:19;102651.91;;;-9.18;62.59
70323;BME280;57735;56.264;43.898;2022-12-07T08:09:50;102654.59;;;-9.13;62.92
70323;BME280;57735;56.264;43.898;2022-12-07T08:12:21;102659.88;;;-9.07;62.38
70323;BME280;57735;56.264;43.898;2022-12-07T08:14:51;102650.41;;;-9.06;62.32
70323;BME280;57735;56.264;43.898;2022-12-07T08:17:22;102639.22;;;-9.04;62.22
70323;BME280;57735;56.264;43.898;2022-12-07T08:19:56;102645.28;;;-9.03;62.48
70323;BME280;57735;56.264;43.898;2022-12-07T08:22:27;102647.88;;;-9.02;62.25
70323;BME280;57735;56.264;43.898;2022-12-07T08:24:58;102656.50;;;-9.01;62.75
70323;BME280;57735;56.264;43.898;2022-12-07T08:27:31;102651.44;;;-8.95;62.59
70323;BME280;57735;56.264;43.898;2022-12-07T08:30:02;102647.25;;;-8.89;62.65
70323;BME280;57735;56.264;43.898;2022-12-07T08:32:34;102645.59;;;-8.84;62.29
70323;BME280;57735;56.264;43.898;2022-12-07T08:35:05;102643.94;;;-8.80;62.00
70323;BME280;57735;56.264;43.898;2022-12-07T08:37:37;102649.13;;;-8.78;62.25
70323;BME280;57735;56.264;43.898;2022-12-07T08:40:08;102651.72;;;-8.78;62.09
70323;BME280;57735;56.264;43.898;2022-12-07T08:42:41;102645.78;;;-8.73;62.39
70323;BME280;57735;56.264;43.898;2022-12-07T08:45:14;102638.97;;;-8.66;62.12
70323;BME280;57735;56.264;43.898;2022-12-07T08:48:10;102643.34;;;-8.62;61.92
70323;BME280;57735;56.264;43.898;2022-12-07T08:50:40;102642.53;;;-8.60;62.04
70323;BME280;57735;56.264;43.898;2022-12-07T08:53:13;102636.59;;;-8.51;61.79
70323;BME280;57735;56.264;43.898;2022-12-07T08:55:47;102642.69;;;-8.48;61.65
70323;BME280;57735;56.264;43.898;2022-12-07T08:58:18;102641.94;;;-8.42;61.62
70323;BME280;57735;56.264;43.898;2022-12-07T09:00:49;102638.56;;;-8.35;61.63
70323;BME280;57735;56.264;43.898;2022-12-07T09:03:23;102643.72;;;-8.35;61.24
70323;BME280;57735;56.264;43.898;2022-12-07T09:05:54;102647.16;;;-8.36;61.57
70323;BME280;57735;56.264;43.898;2022-12-07T09:08:31;102648.94;;;-8.33;61.80
70323;BME280;57735;56.264;43.898;2022-12-07T09:11:03;102645.47;;;-8.31;61.67
70323;BME280;57735;56.264;43.898;2022-12-07T09:13:34;102643.75;;;-8.30;61.63
70323;BME280;57735;56.264;43.898;2022-12-07T09:16:05;102642.09;;;-8.27;61.20
70323;BME280;57735;56.264;43.898;2022-12-07T09:18:36;102651.53;;;-8.32;61.52
70323;BME280;57735;56.264;43.898;2022-12-07T09:21:08;102644.63;;;-8.30;61.54
70323;BME280;57735;56.264;43.898;2022-12-07T09:23:41;102645.53;;;-8.28;61.52
70323;BME280;57735;56.264;43.898;2022-12-07T09:26:13;102649.88;;;-8.25;61.46
70323;BME280;57735;56.264;43.898;2022-12-07T09:28:44;102649.06;;;-8.23;61.42
70323;BME280;57735;56.264;43.898;2022-12-07T09:31:14;102650.81;;;-8.19;61.19
70323;BME280;57735;56.264;43.898;2022-12-07T09:33:45;102656.06;;;-8.13;61.32
70323;BME280;57735;56.264;43.898;2022-12-07T09:36:16;102647.50;;;-8.10;60.99
70323;BME280;57735;56.264;43.898;2022-12-07T09:38:52;102640.66;;;-8.03;61.02
70323;BME280;57735;56.264;43.898;2022-12-07T09:41:27;102640.75;;;-7.97;60.88
70323;BME280;57735;56.264;43.898;2022-12-07T09:44:05;102645.19;;;-7.89;61.07
70323;BME280;57735;56.264;43.898;2022-12-07T09:46:38;102639.19;;;-7.83;60.90
70323;BME280;57735;56.264;43.898;2022-12-07T09:49:18;102643.56;;;-7.78;60.97
70323;BME280;57735;56.264;43.898;2022-12-07T09:54:52;102635.19;;;-7.57;60.63
70323;BME280;57735;56.264;43.898;2022-12-07T09:57:29;102643.00;;;-7.49;60.65
70323;BME280;57735;56.264;43.898;2022-12-07T10:00:06;102641.41;;;-7.35;60.41
70323;BME280;57735;56.264;43.898;2022-12-07T10:02:43;102641.53;;;-7.24;60.20
70323;BME280;57735;56.264;43.898;2022-12-07T10:05:19;102635.53;;;-7.19;60.13
70323;BME280;57735;56.264;43.898;2022-12-07T10:07:51;102624.44;;;-7.06;59.56
70323;BME280;57735;56.264;43.898;2022-12-07T10:10:33;102637.44;;;-6.98;59.54
70323;BME280;57735;56.264;43.898;2022-12-07T10:13:13;102630.56;;;-6.94;59.41
70323;BME280;57735;56.264;43.898;2022-12-07T10:15:55;102629.78;;;-6.87;59.71
70323;BME280;57735;56.264;43.898;2022-12-07T10:23:31;102618.47;;;-6.95;59.47
70323;BME280;57735;56.264;43.898;2022-12-07T10:26:26;102624.56;;;-6.89;59.72
70323;BME280;57735;56.264;43.898;2022-12-07T10:32:29;102614.31;;;-6.74;59.69
70323;BME280;57735;56.264;43.898;2022-12-07T10:35:23;102610.84;;;-6.70;59.49
70323;BME280;57735;56.264;43.898;2022-12-07T10:37:56;102609.16;;;-6.71;59.62
70323;BME280;57735;56.264;43.898;2022-12-07T10:40:36;102619.50;;;-6.72;59.67
70323;BME280;57735;56.264;43.898;2022-12-07T10:43:17;102623.00;;;-6.64;59.51
70323;BME280;57735;56.264;43.898;2022-12-07T10:51:57;102619.56;;;-6.63;59.26
70323;BME280;57735;56.264;43.898;2022-12-07T11:00:57;102607.34;;;-6.81;59.16
70323;BME280;57735;56.264;43.898;2022-12-07T11:06:14;102612.44;;;-6.91;60.09
70323;BME280;57735;56.264;43.898;2022-12-07T11:17:41;102619.25;;;-7.06;60.50
70323;BME280;57735;56.264;43.898;2022-12-07T11:24:01;102607.88;;;-7.20;60.33
70323;BME280;57735;56.264;43.898;2022-12-07T11:32:57;102607.59;;;-7.52;61.09
70323;BME280;57735;56.264;43.898;2022-12-07T11:38:52;102600.50;;;-7.71;61.21
70323;BME280;57735;56.264;43.898;2022-12-07T11:41:28;102596.13;;;-7.78;61.66
70323;BME280;57735;56.264;43.898;2022-12-07T11:44:19;102595.16;;;-7.85;61.98
70323;BME280;57735;56.264;43.898;2022-12-07T11:47:00;102595.13;;;-7.89;61.97
70323;BME280;57735;56.264;43.898;2022-12-07T11:49:45;102602.00;;;-7.91;62.14
70323;BME280;57735;56.264;43.898;2022-12-07T11:55:27;102592.38;;;-8.04;62.39
70323;BME280;57735;56.264;43.898;2022-12-07T11:58:11;102597.50;;;-8.09;62.22
70323;BME280;57735;56.264;43.898;2022-12-07T12:00:46;102594.84;;;-8.14;62.84
70323;BME280;57735;56.264;43.898;2022-12-07T12:03:30;102589.63;;;-8.17;62.72
70323;BME280;57735;56.264;43.898;2022-12-07T12:06:04;102600.78;;;-8.19;62.79
70323;BME280;57735;56.264;43.898;2022-12-07T12:09:16;102592.97;;;-8.25;62.88
70323;BME280;57735;56.264;43.898;2022-12-07T12:20:25;102609.00;;;-8.55;63.48
70323;BME280;57735;56.264;43.898;2022-12-07T12:23:05;102601.16;;;-8.60;63.60
70323;BME280;57735;56.264;43.898;2022-12-07T12:25:48;102602.84;;;-8.63;63.56
70323;BME280;57735;56.264;43.898;2022-12-07T12:33:43;102607.84;;;-8.75;63.89
70323;BME280;57735;56.264;43.898;2022-12-07T12:38:48;102600.03;;;-8.78;63.97
70323;BME280;57735;56.264;43.898;2022-12-07T12:46:58;102594.72;;;-8.88;64.20
70323;BME280;57735;56.264;43.898;2022-12-07T12:49:42;102599.84;;;-8.91;64.11
70323;BME280;57735;56.264;43.898;2022-12-07T12:55:01;102599.66;;;-9.03;64.04
70323;BME280;57735;56.264;43.898;2022-12-07T12:57:43;102597.06;;;-9.03;64.25
70323;BME280;57735;56.264;43.898;2022-12-07T13:00:22;102605.63;;;-9.07;64.25
70323;BME280;57735;56.264;43.898;2022-12-07T13:02:56;102588.41;;;-9.06;64.14
70323;BME280;57735;56.264;43.898;2022-12-07T13:05:32;102604.72;;;-9.09;64.04
70323;BME280;57735;56.264;43.898;2022-12-07T13:08:24;102587.44;;;-9.13;64.11
70323;BME280;57735;56.264;43.898;2022-12-07T13:11:16;102587.50;;;-9.10;64.28
70323;BME280;57735;56.264;43.898;2022-12-07T13:13:48;102586.63;;;-9.10;64.28
70323;BME280;57735;56.264;43.898;2022-12-07T13:18:52;102571.88;;;-9.16;64.28
70323;BME280;57735;56.264;43.898;2022-12-07T13:24:00;102573.56;;;-9.18;64.45
70323;BME280;57735;56.264;43.898;2022-12-07T13:26:37;102587.31;;;-9.19;64.47
70323;BME280;57735;56.264;43.898;2022-12-07T13:29:17;102586.50;;;-9.17;64.55
70323;BME280;57735;56.264;43.898;2022-12-07T13:37:27;102582.09;;;-9.25;64.80
70323;BME280;57735;56.264;43.898;2022-12-07T13:40:00;102578.53;;;-9.32;64.87
70323;BME280;57735;56.264;43.898;2022-12-07T13:42:33;102574.19;;;-9.33;65.17
70323;BME280;57735;56.264;43.898;2022-12-07T13:45:27;102571.53;;;-9.39;65.25
70323;BME280;57735;56.264;43.898;2022-12-07T13:48:27;102581.84;;;-9.40;65.53
70323;BME280;57735;56.264;43.898;2022-12-07T13:51:03;102586.09;;;-9.42;65.61
70323;BME280;57735;56.264;43.898;2022-12-07T13:53:46;102581.78;;;-9.43;65.44
70323;BME280;57735;56.264;43.898;2022-12-07T13:56:17;102573.13;;;-9.45;65.63
70323;BME280;57735;56.264;43.898;2022-12-07T13:58:48;102579.97;;;-9.47;65.87
70323;BME280;57735;56.264;43.898;2022-12-07T14:01:19;102576.56;;;-9.46;65.85
70323;BME280;57735;56.264;43.898;2022-12-07T14:03:50;102572.25;;;-9.46;65.47
70323;BME280;57735;56.264;43.898;2022-12-07T14:06:24;102581.72;;;-9.46;65.48
70323;BME280;57735;56.264;43.898;2022-12-07T14:09:26;102579.97;;;-9.47;65.18
70323;BME280;57735;56.264;43.898;2022-12-07T14:12:00;102573.03;;;-9.50;65.35
70323;BME280;57735;56.264;43.898;2022-12-07T14:14:39;102573.88;;;-9.51;65.33
70323;BME280;57735;56.264;43.898;2022-12-07T14:17:19;102579.88;;;-9.52;65.53
70323;BME280;57735;56.264;43.898;2022-12-07T14:19:58;102576.41;;;-9.54;65.55
70323;BME280;57735;56.264;43.898;2022-12-07T14:27:49;102569.50;;;-9.57;65.61
70323;BME280;57735;56.264;43.898;2022-12-07T14:30:21;102568.59;;;-9.59;65.41
70323;BME280;57735;56.264;43.898;2022-12-07T14:32:56;102569.44;;;-9.60;65.31
70323;BME280;57735;56.264;43.898;2022-12-07T14:35:28;102570.28;;;-9.61;65.42
70323;BME280;57735;56.264;43.898;2022-12-07T14:38:02;102582.34;;;-9.60;65.27
70323;BME280;57735;56.264;43.898;2022-12-07T14:40:32;102566.84;;;-9.61;65.43
70323;BME280;57735;56.264;43.898;2022-12-07T14:43:05;102565.94;;;-9.63;65.29
70323;BME280;57735;56.264;43.898;2022-12-07T14:45:39;102564.19;;;-9.64;65.30
70323;BME280;57735;56.264;43.898;2022-12-07T14:48:12;102565.97;;;-9.62;65.38
70323;BME280;57735;56.264;43.898;2022-12-07T14:50:51;102565.91;;;-9.65;65.04
70323;BME280;57735;56.264;43.898;2022-12-07T14:53:28;102568.44;;;-9.68;64.89
70323;BME280;57735;56.264;43.898;2022-12-07T14:56:00;102564.94;;;-9.70;64.95
70323;BME280;57735;56.264;43.898;2022-12-07T14:58:31;102568.38;;;-9.72;64.96
70323;BME280;57735;56.264;43.898;2022-12-07T15:01:03;102564.91;;;-9.73;65.13
70323;BME280;57735;56.264;43.898;2022-12-07T15:03:36;102555.47;;;-9.72;64.88
70323;BME280;57735;56.264;43.898;2022-12-07T15:06:16;102565.78;;;-9.72;64.92
70323;BME280;57735;56.264;43.898;2022-12-07T15:08:51;102558.06;;;-9.72;64.53
70323;BME280;57735;56.264;43.898;2022-12-07T15:11:22;102552.00;;;-9.71;64.40
70323;BME280;57735;56.264;43.898;2022-12-07T15:13:53;102555.50;;;-9.69;64.73